Terminal Aerodrome Forecast
Issued by NWS

Home | Current Version | Previous Version | Text Only | Print | Product List | Glossary On
Versions: 1 2 3 4 5 6 7 8 9 10 11 12 13 14 15 16 17 18
824
FTAK31 PAJN 290710 AAA
TAFASI
TAF AMD
PASI 290710Z 2907/3006 VRB05KT P6SM -SHRA SCT015 BKN025 OVC040
      TEMPO 2907/2909 3SM SHRA BR BKN015 BKN020 OVC030
     FM291500 13009KT P6SM -SHRA BKN030 OVC045
      TEMPO 2920/2924 5SM -SHRA BR BKN020 OVC045
     FM300200 13009KT P6SM VCSH SCT020 BKN040 OVC070=

USA.gov is the U.S. government's official web portal to all federal, state and local government web resources and services.